sensor_id;sensor_type;location;lat;lon;timestamp;pressure;altitude;pressure_sealevel;temperature;humidity
72798;BME280;61084;55.816;37.036;2023-05-28T00:00:46;99520.66;;;11.69;49.68
72798;BME280;61084;55.816;37.036;2023-05-28T00:03:12;99518.13;;;11.67;49.72
72798;BME280;61084;55.816;37.036;2023-05-28T00:05:38;99518.50;;;11.60;49.17
72798;BME280;61084;55.816;37.036;2023-05-28T00:08:04;99518.75;;;11.55;49.76
72798;BME280;61084;55.816;37.036;2023-05-28T00:10:31;99517.13;;;11.53;49.37
72798;BME280;61084;55.816;37.036;2023-05-28T00:12:57;99518.47;;;11.44;50.41
72798;BME280;61084;55.816;37.036;2023-05-28T00:15:23;99508.41;;;11.36;49.79
72798;BME280;61084;55.816;37.036;2023-05-28T00:17:49;99513.91;;;11.32;50.35
72798;BME280;61084;55.816;37.036;2023-05-28T00:20:19;99511.94;;;11.20;50.62
72798;BME280;61084;55.816;37.036;2023-05-28T00:22:45;99517.44;;;11.15;51.06
72798;BME280;61084;55.816;37.036;2023-05-28T00:25:12;99520.63;;;11.05;53.26
72798;BME280;61084;55.816;37.036;2023-05-28T00:27:39;99516.88;;;10.93;50.53
72798;BME280;61084;55.816;37.036;2023-05-28T00:30:06;99514.50;;;10.89;51.24
72798;BME280;61084;55.816;37.036;2023-05-28T00:32:35;99508.56;;;10.85;52.60
72798;BME280;61084;55.816;37.036;2023-05-28T00:35:02;99498.81;;;10.87;50.42
72798;BME280;61084;55.816;37.036;2023-05-28T00:37:32;99507.00;;;10.81;52.85
72798;BME280;61084;55.816;37.036;2023-05-28T00:39:58;99503.06;;;10.73;52.87
72798;BME280;61084;55.816;37.036;2023-05-28T00:42:24;99512.97;;;10.68;52.12
72798;BME280;61084;55.816;37.036;2023-05-28T00:44:52;99505.09;;;10.68;51.69
72798;BME280;61084;55.816;37.036;2023-05-28T00:47:18;99499.09;;;10.66;52.10
72798;BME280;61084;55.816;37.036;2023-05-28T00:49:44;99500.16;;;10.61;53.06
72798;BME280;61084;55.816;37.036;2023-05-28T00:52:11;99504.81;;;10.56;51.93
72798;BME280;61084;55.816;37.036;2023-05-28T00:54:37;99502.31;;;10.53;52.78
72798;BME280;61084;55.816;37.036;2023-05-28T00:57:04;99488.53;;;10.50;54.99
72798;BME280;61084;55.816;37.036;2023-05-28T00:59:31;99492.38;;;10.43;52.66
72798;BME280;61084;55.816;37.036;2023-05-28T01:02:00;99491.84;;;10.36;53.57
72798;BME280;61084;55.816;37.036;2023-05-28T01:04:27;99503.25;;;10.35;53.15
72798;BME280;61084;55.816;37.036;2023-05-28T01:07:00;99497.31;;;10.32;53.84
72798;BME280;61084;55.816;37.036;2023-05-28T01:09:27;99497.22;;;10.33;52.62
72798;BME280;61084;55.816;37.036;2023-05-28T01:11:53;99504.66;;;10.25;53.36
72798;BME280;61084;55.816;37.036;2023-05-28T01:14:20;99501.34;;;10.22;55.07
72798;BME280;61084;55.816;37.036;2023-05-28T01:16:46;99499.25;;;10.11;52.87
72798;BME280;61084;55.816;37.036;2023-05-28T01:19:16;99508.09;;;10.09;53.88
72798;BME280;61084;55.816;37.036;2023-05-28T01:21:46;99506.47;;;10.06;53.41
72798;BME280;61084;55.816;37.036;2023-05-28T01:24:14;99504.69;;;10.07;54.36
72798;BME280;61084;55.816;37.036;2023-05-28T01:26:43;99514.16;;;10.09;52.61
72798;BME280;61084;55.816;37.036;2023-05-28T01:29:16;99504.75;;;10.05;55.26
72798;BME280;61084;55.816;37.036;2023-05-28T01:31:43;99508.34;;;10.03;53.88
72798;BME280;61084;55.816;37.036;2023-05-28T01:34:10;99510.59;;;9.93;57.70
72798;BME280;61084;55.816;37.036;2023-05-28T01:36:43;99510.72;;;9.90;55.98
72798;BME280;61084;55.816;37.036;2023-05-28T01:39:14;99509.09;;;9.87;56.00
72798;BME280;61084;55.816;37.036;2023-05-28T01:41:43;99521.44;;;9.85;54.77
72798;BME280;61084;55.816;37.036;2023-05-28T01:44:13;99523.06;;;9.88;55.44
72798;BME280;61084;55.816;37.036;2023-05-28T01:46:43;99522.16;;;9.89;54.47
72798;BME280;61084;55.816;37.036;2023-05-28T01:49:10;99526.63;;;9.87;54.58
72798;BME280;61084;55.816;37.036;2023-05-28T01:51:36;99519.69;;;9.86;54.96
72798;BME280;61084;55.816;37.036;2023-05-28T01:54:02;99512.66;;;9.86;55.14
72798;BME280;61084;55.816;37.036;2023-05-28T01:56:29;99516.28;;;9.84;56.65
72798;BME280;61084;55.816;37.036;2023-05-28T01:58:55;99513.78;;;9.81;57.46
72798;BME280;61084;55.816;37.036;2023-05-28T02:01:27;99513.88;;;9.79;55.83
72798;BME280;61084;55.816;37.036;2023-05-28T02:03:56;99516.50;;;9.79;55.62
72798;BME280;61084;55.816;37.036;2023-05-28T02:06:22;99519.81;;;9.83;57.60
72798;BME280;61084;55.816;37.036;2023-05-28T02:08:50;99514.56;;;9.83;55.83
72798;BME280;61084;55.816;37.036;2023-05-28T02:11:16;99523.38;;;9.82;56.12
72798;BME280;61084;55.816;37.036;2023-05-28T02:13:42;99520.97;;;9.77;56.40
72798;BME280;61084;55.816;37.036;2023-05-28T02:16:10;99522.59;;;9.80;56.11
72798;BME280;61084;55.816;37.036;2023-05-28T02:18:37;99511.16;;;9.81;57.15
72798;BME280;61084;55.816;37.036;2023-05-28T02:21:04;99513.97;;;9.78;55.73
72798;BME280;61084;55.816;37.036;2023-05-28T02:23:30;99513.78;;;9.81;54.27
72798;BME280;61084;55.816;37.036;2023-05-28T02:25:56;99506.94;;;9.78;56.41
72798;BME280;61084;55.816;37.036;2023-05-28T02:28:21;99511.38;;;9.76;56.41
72798;BME280;61084;55.816;37.036;2023-05-28T02:30:47;99517.50;;;9.77;56.78
72798;BME280;61084;55.816;37.036;2023-05-28T02:33:16;99513.03;;;9.79;58.40
72798;BME280;61084;55.816;37.036;2023-05-28T02:35:44;99512.19;;;9.78;55.53
72798;BME280;61084;55.816;37.036;2023-05-28T02:38:11;99522.69;;;9.78;58.74
72798;BME280;61084;55.816;37.036;2023-05-28T02:40:37;99517.06;;;9.86;57.15
72798;BME280;61084;55.816;37.036;2023-05-28T02:43:03;99519.38;;;9.92;57.28
72798;BME280;61084;55.816;37.036;2023-05-28T02:45:29;99530.50;;;9.97;58.49
72798;BME280;61084;55.816;37.036;2023-05-28T02:47:55;99523.25;;;10.02;57.13
72798;BME280;61084;55.816;37.036;2023-05-28T02:50:22;99525.66;;;10.07;58.50
72798;BME280;61084;55.816;37.036;2023-05-28T02:53:01;99520.91;;;9.96;58.92
72798;BME280;61084;55.816;37.036;2023-05-28T02:55:27;99522.94;;;9.91;57.66
72798;BME280;61084;55.816;37.036;2023-05-28T02:57:53;99524.69;;;9.91;57.01
72798;BME280;61084;55.816;37.036;2023-05-28T03:00:19;99526.25;;;9.95;56.92
72798;BME280;61084;55.816;37.036;2023-05-28T03:02:46;99535.97;;;9.93;56.78
72798;BME280;61084;55.816;37.036;2023-05-28T03:05:12;99527.25;;;9.92;57.20
72798;BME280;61084;55.816;37.036;2023-05-28T03:07:38;99526.88;;;10.00;56.96
72798;BME280;61084;55.816;37.036;2023-05-28T03:10:05;99540.63;;;10.05;57.00
72798;BME280;61084;55.816;37.036;2023-05-28T03:12:33;99533.25;;;10.13;57.10
72798;BME280;61084;55.816;37.036;2023-05-28T03:14:59;99538.88;;;10.22;57.25
72798;BME280;61084;55.816;37.036;2023-05-28T03:17:25;99540.38;;;10.28;57.65
72798;BME280;61084;55.816;37.036;2023-05-28T03:19:51;99536.75;;;10.30;58.78
72798;BME280;61084;55.816;37.036;2023-05-28T03:22:20;99531.19;;;10.36;56.21
72798;BME280;61084;55.816;37.036;2023-05-28T03:24:46;99531.97;;;10.38;56.45
72798;BME280;61084;55.816;37.036;2023-05-28T03:27:16;99532.75;;;10.40;57.46
72798;BME280;61084;55.816;37.036;2023-05-28T03:29:46;99535.91;;;10.47;58.16
72798;BME280;61084;55.816;37.036;2023-05-28T03:32:23;99530.09;;;10.57;59.08
72798;BME280;61084;55.816;37.036;2023-05-28T03:34:48;99535.13;;;10.62;57.18
72798;BME280;61084;55.816;37.036;2023-05-28T03:37:20;99529.50;;;10.70;56.83
72798;BME280;61084;55.816;37.036;2023-05-28T03:39:46;99539.59;;;10.77;56.79
72798;BME280;61084;55.816;37.036;2023-05-28T03:42:12;99541.13;;;10.81;57.22
72798;BME280;61084;55.816;37.036;2023-05-28T03:44:38;99537.44;;;10.85;57.73
72798;BME280;61084;55.816;37.036;2023-05-28T03:47:04;99545.00;;;10.91;57.83
72798;BME280;61084;55.816;37.036;2023-05-28T03:49:30;99538.47;;;10.98;56.29
72798;BME280;61084;55.816;37.036;2023-05-28T03:51:57;99541.63;;;11.05;57.14
72798;BME280;61084;55.816;37.036;2023-05-28T03:54:25;99549.97;;;11.13;56.82
72798;BME280;61084;55.816;37.036;2023-05-28T03:56:51;99553.28;;;11.16;57.12
72798;BME280;61084;55.816;37.036;2023-05-28T03:59:20;99555.50;;;11.24;60.64
72798;BME280;61084;55.816;37.036;2023-05-28T04:01:49;99547.16;;;11.33;57.20
72798;BME280;61084;55.816;37.036;2023-05-28T04:04:15;99553.50;;;11.45;57.09
72798;BME280;61084;55.816;37.036;2023-05-28T04:06:41;99555.88;;;11.49;56.82
72798;BME280;61084;55.816;37.036;2023-05-28T04:09:08;99555.63;;;11.54;56.43
72798;BME280;61084;55.816;37.036;2023-05-28T04:11:34;99559.88;;;11.56;56.52
72798;BME280;61084;55.816;37.036;2023-05-28T04:14:02;99559.44;;;11.64;57.73
72798;BME280;61084;55.816;37.036;2023-05-28T04:16:29;99562.56;;;11.72;57.44
72798;BME280;61084;55.816;37.036;2023-05-28T04:18:55;99552.88;;;11.88;57.57
72798;BME280;61084;55.816;37.036;2023-05-28T04:21:22;99557.63;;;11.97;56.85
72798;BME280;61084;55.816;37.036;2023-05-28T04:23:48;99564.66;;;12.12;56.12
72798;BME280;61084;55.816;37.036;2023-05-28T04:26:14;99557.88;;;12.24;55.92
72798;BME280;61084;55.816;37.036;2023-05-28T04:28:41;99559.63;;;12.23;55.97
72798;BME280;61084;55.816;37.036;2023-05-28T04:31:07;99571.44;;;12.16;56.58
72798;BME280;61084;55.816;37.036;2023-05-28T04:33:32;99564.66;;;12.12;56.86
72798;BME280;61084;55.816;37.036;2023-05-28T04:35:59;99569.56;;;12.18;56.85
72798;BME280;61084;55.816;37.036;2023-05-28T04:38:44;99568.75;;;12.18;56.61
72798;BME280;61084;55.816;37.036;2023-05-28T04:41:29;99570.53;;;12.17;56.93
72798;BME280;61084;55.816;37.036;2023-05-28T04:43:57;99568.66;;;12.19;56.01
72798;BME280;61084;55.816;37.036;2023-05-28T04:46:24;99565.06;;;12.20;56.28
72798;BME280;61084;55.816;37.036;2023-05-28T04:48:52;99572.28;;;12.32;58.05
72798;BME280;61084;55.816;37.036;2023-05-28T04:51:18;99574.16;;;12.30;56.95
72798;BME280;61084;55.816;37.036;2023-05-28T04:53:47;99568.38;;;12.24;57.50
72798;BME280;61084;55.816;37.036;2023-05-28T04:56:32;99572.63;;;12.26;58.32
72798;BME280;61084;55.816;37.036;2023-05-28T04:58:58;99568.19;;;12.27;56.21
72798;BME280;61084;55.816;37.036;2023-05-28T05:01:24;99576.03;;;12.28;57.98
72798;BME280;61084;55.816;37.036;2023-05-28T05:03:51;99573.38;;;12.28;56.43
72798;BME280;61084;55.816;37.036;2023-05-28T05:06:17;99585.03;;;12.24;56.24
72798;BME280;61084;55.816;37.036;2023-05-28T05:08:43;99572.63;;;12.26;57.55
72798;BME280;61084;55.816;37.036;2023-05-28T05:11:09;99576.94;;;12.27;57.96
72798;BME280;61084;55.816;37.036;2023-05-28T05:13:36;99571.69;;;12.27;56.82
72798;BME280;61084;55.816;37.036;2023-05-28T05:16:02;99577.63;;;12.31;56.00
72798;BME280;61084;55.816;37.036;2023-05-28T05:18:47;99575.84;;;12.31;56.99
72798;BME280;61084;55.816;37.036;2023-05-28T05:21:13;99573.03;;;12.34;56.44
72798;BME280;61084;55.816;37.036;2023-05-28T05:23:39;99569.78;;;12.45;56.73
72798;BME280;61084;55.816;37.036;2023-05-28T05:26:07;99568.03;;;12.59;56.28
72798;BME280;61084;55.816;37.036;2023-05-28T05:28:35;99568.94;;;12.74;55.01
72798;BME280;61084;55.816;37.036;2023-05-28T05:31:02;99571.59;;;12.88;56.14
72798;BME280;61084;55.816;37.036;2023-05-28T05:33:28;99572.66;;;13.00;56.35
72798;BME280;61084;55.816;37.036;2023-05-28T05:36:22;99571.53;;;13.04;55.17
72798;BME280;61084;55.816;37.036;2023-05-28T05:39:07;99574.63;;;12.96;54.85
72798;BME280;61084;55.816;37.036;2023-05-28T05:42:00;99576.81;;;13.04;54.91
72798;BME280;61084;55.816;37.036;2023-05-28T05:44:31;99579.19;;;13.08;56.30
72798;BME280;61084;55.816;37.036;2023-05-28T05:46:58;99589.97;;;13.04;54.51
72798;BME280;61084;55.816;37.036;2023-05-28T05:52:29;99582.53;;;12.96;55.65
72798;BME280;61084;55.816;37.036;2023-05-28T05:54:55;99586.75;;;12.99;55.12
72798;BME280;61084;55.816;37.036;2023-05-28T05:57:40;99584.06;;;13.00;55.81
72798;BME280;61084;55.816;37.036;2023-05-28T06:00:25;99588.47;;;13.00;55.08
72798;BME280;61084;55.816;37.036;2023-05-28T06:02:55;99589.22;;;13.02;55.17
72798;BME280;61084;55.816;37.036;2023-05-28T06:05:40;99595.25;;;13.04;54.08
72798;BME280;61084;55.816;37.036;2023-05-28T06:08:20;99601.00;;;12.96;54.56
72798;BME280;61084;55.816;37.036;2023-05-28T06:10:58;99596.47;;;12.98;55.68
72798;BME280;61084;55.816;37.036;2023-05-28T06:13:24;99598.34;;;12.96;55.83
72798;BME280;61084;55.816;37.036;2023-05-28T06:15:50;99607.28;;;12.94;55.56
72798;BME280;61084;55.816;37.036;2023-05-28T06:18:16;99599.94;;;12.99;54.98
72798;BME280;61084;55.816;37.036;2023-05-28T06:20:42;99603.78;;;12.93;54.76
72798;BME280;61084;55.816;37.036;2023-05-28T06:23:09;99610.56;;;12.97;56.42
72798;BME280;61084;55.816;37.036;2023-05-28T06:25:37;99614.91;;;12.98;55.48
72798;BME280;61084;55.816;37.036;2023-05-28T06:28:04;99607.00;;;12.98;56.65
72798;BME280;61084;55.816;37.036;2023-05-28T06:30:31;99607.66;;;13.02;55.66
72798;BME280;61084;55.816;37.036;2023-05-28T06:32:57;99605.03;;;13.02;56.31
72798;BME280;61084;55.816;37.036;2023-05-28T06:35:23;99609.44;;;13.01;56.61
72798;BME280;61084;55.816;37.036;2023-05-28T06:37:49;99603.94;;;13.06;57.12
72798;BME280;61084;55.816;37.036;2023-05-28T06:40:15;99615.81;;;13.13;55.61
72798;BME280;61084;55.816;37.036;2023-05-28T06:42:41;99610.66;;;13.11;57.20
72798;BME280;61084;55.816;37.036;2023-05-28T06:45:12;99612.81;;;13.05;55.28
72798;BME280;61084;55.816;37.036;2023-05-28T06:47:39;99609.53;;;13.15;55.53
72798;BME280;61084;55.816;37.036;2023-05-28T06:50:06;99611.03;;;13.19;56.41
72798;BME280;61084;55.816;37.036;2023-05-28T06:52:33;99610.66;;;13.11;56.26
72798;BME280;61084;55.816;37.036;2023-05-28T06:54:59;99616.09;;;13.08;57.22
72798;BME280;61084;55.816;37.036;2023-05-28T06:57:28;99617.50;;;13.14;56.09
72798;BME280;61084;55.816;37.036;2023-05-28T07:00:24;99614.31;;;13.09;55.61
72798;BME280;61084;55.816;37.036;2023-05-28T07:03:03;99619.06;;;13.02;55.81
72798;BME280;61084;55.816;37.036;2023-05-28T07:05:48;99614.56;;;13.04;55.88
72798;BME280;61084;55.816;37.036;2023-05-28T07:08:14;99614.56;;;13.04;55.50
72798;BME280;61084;55.816;37.036;2023-05-28T07:10:40;99619.47;;;13.10;55.97
72798;BME280;61084;55.816;37.036;2023-05-28T07:13:07;99616.09;;;13.22;57.54
72798;BME280;61084;55.816;37.036;2023-05-28T07:15:33;99615.94;;;13.25;55.93
72798;BME280;61084;55.816;37.036;2023-05-28T07:17:59;99614.72;;;13.31;55.45
72798;BME280;61084;55.816;37.036;2023-05-28T07:20:27;99617.34;;;13.31;55.95
72798;BME280;61084;55.816;37.036;2023-05-28T07:23:04;99609.34;;;13.32;55.75
72798;BME280;61084;55.816;37.036;2023-05-28T07:25:30;99610.84;;;13.36;55.54
72798;BME280;61084;55.816;37.036;2023-05-28T07:27:56;99602.97;;;13.50;55.92
72798;BME280;61084;55.816;37.036;2023-05-28T07:30:33;99599.56;;;13.63;55.54
72798;BME280;61084;55.816;37.036;2023-05-28T07:33:03;99602.94;;;13.79;55.50
72798;BME280;61084;55.816;37.036;2023-05-28T07:35:29;99597.34;;;13.83;55.92
72798;BME280;61084;55.816;37.036;2023-05-28T07:37:56;99591.72;;;13.89;55.05
72798;BME280;61084;55.816;37.036;2023-05-28T07:40:22;99588.38;;;14.00;55.18
72798;BME280;61084;55.816;37.036;2023-05-28T07:42:49;99586.81;;;14.24;55.65
72798;BME280;61084;55.816;37.036;2023-05-28T07:45:16;99585.69;;;14.55;54.90
72798;BME280;61084;55.816;37.036;2023-05-28T07:47:42;99586.69;;;14.79;54.84
72798;BME280;61084;55.816;37.036;2023-05-28T07:50:27;99587.97;;;14.98;53.85
72798;BME280;61084;55.816;37.036;2023-05-28T07:53:26;99586.19;;;14.99;53.78
72798;BME280;61084;55.816;37.036;2023-05-28T07:55:51;99594.97;;;14.99;53.54
72798;BME280;61084;55.816;37.036;2023-05-28T07:58:19;99595.16;;;14.96;53.13
72798;BME280;61084;55.816;37.036;2023-05-28T08:00:45;99595.69;;;14.89;52.86
72798;BME280;61084;55.816;37.036;2023-05-28T08:03:11;99596.88;;;14.97;52.64
72798;BME280;61084;55.816;37.036;2023-05-28T08:05:40;99599.94;;;15.17;53.05
72798;BME280;61084;55.816;37.036;2023-05-28T08:08:06;99607.63;;;15.46;52.73
72798;BME280;61084;55.816;37.036;2023-05-28T08:10:32;99604.38;;;15.79;52.74
72798;BME280;61084;55.816;37.036;2023-05-28T08:12:58;99597.66;;;16.11;52.09
72798;BME280;61084;55.816;37.036;2023-05-28T08:15:24;99593.69;;;16.40;51.88
72798;BME280;61084;55.816;37.036;2023-05-28T08:17:53;99597.63;;;16.71;51.50
72798;BME280;61084;55.816;37.036;2023-05-28T08:20:21;99599.03;;;16.99;51.01
72798;BME280;61084;55.816;37.036;2023-05-28T08:23:08;99602.44;;;17.12;50.46
72798;BME280;61084;55.816;37.036;2023-05-28T08:25:34;99603.34;;;17.34;49.95
72798;BME280;61084;55.816;37.036;2023-05-28T08:28:08;99601.97;;;17.64;49.91
72798;BME280;61084;55.816;37.036;2023-05-28T08:30:36;99600.84;;;17.88;49.67
72798;BME280;61084;55.816;37.036;2023-05-28T08:33:11;99608.91;;;18.09;48.86
72798;BME280;61084;55.816;37.036;2023-05-28T08:35:37;99611.44;;;18.11;47.61
72798;BME280;61084;55.816;37.036;2023-05-28T08:38:04;99613.03;;;18.02;47.69
72798;BME280;61084;55.816;37.036;2023-05-28T08:40:44;99611.59;;;17.87;47.40
72798;BME280;61084;55.816;37.036;2023-05-28T08:43:14;99609.16;;;17.73;47.55
72798;BME280;61084;55.816;37.036;2023-05-28T08:45:58;99624.13;;;17.52;47.55
72798;BME280;61084;55.816;37.036;2023-05-28T08:48:34;99620.34;;;17.43;47.65
72798;BME280;61084;55.816;37.036;2023-05-28T08:51:01;99626.38;;;17.34;47.10
72798;BME280;61084;55.816;37.036;2023-05-28T08:53:36;99635.28;;;17.22;46.90
72798;BME280;61084;55.816;37.036;2023-05-28T08:56:05;99628.19;;;16.99;46.43
72798;BME280;61084;55.816;37.036;2023-05-28T08:58:34;99625.19;;;16.69;47.82
72798;BME280;61084;55.816;37.036;2023-05-28T09:01:19;99627.91;;;16.56;47.75
72798;BME280;61084;55.816;37.036;2023-05-28T09:04:09;99623.91;;;16.50;48.26
72798;BME280;61084;55.816;37.036;2023-05-28T09:06:44;99622.50;;;16.45;47.88
72798;BME280;61084;55.816;37.036;2023-05-28T09:09:28;99617.56;;;16.40;48.31
72798;BME280;61084;55.816;37.036;2023-05-28T09:12:02;99619.66;;;16.48;48.70
72798;BME280;61084;55.816;37.036;2023-05-28T09:17:14;99620.81;;;16.56;48.47
72798;BME280;61084;55.816;37.036;2023-05-28T09:19:51;99621.69;;;16.68;48.26
72798;BME280;61084;55.816;37.036;2023-05-28T09:22:20;99617.53;;;16.77;48.07
72798;BME280;61084;55.816;37.036;2023-05-28T09:24:59;99630.47;;;16.92;48.08
72798;BME280;61084;55.816;37.036;2023-05-28T09:27:44;99633.50;;;16.99;47.22
72798;BME280;61084;55.816;37.036;2023-05-28T09:30:11;99632.69;;;16.98;47.58
72798;BME280;61084;55.816;37.036;2023-05-28T09:32:37;99632.34;;;17.03;47.78
72798;BME280;61084;55.816;37.036;2023-05-28T09:35:07;99623.28;;;17.05;47.38
72798;BME280;61084;55.816;37.036;2023-05-28T09:37:36;99635.72;;;17.05;46.98
72798;BME280;61084;55.816;37.036;2023-05-28T09:40:04;99636.19;;;17.10;47.71
72798;BME280;61084;55.816;37.036;2023-05-28T09:42:35;99629.69;;;17.14;47.27
72798;BME280;61084;55.816;37.036;2023-05-28T09:45:04;99632.59;;;17.11;47.51
72798;BME280;61084;55.816;37.036;2023-05-28T09:47:31;99633.78;;;17.07;46.85
72798;BME280;61084;55.816;37.036;2023-05-28T09:49:57;99638.06;;;16.97;47.00
72798;BME280;61084;55.816;37.036;2023-05-28T09:52:23;99630.16;;;17.08;46.76
72798;BME280;61084;55.816;37.036;2023-05-28T09:54:53;99624.53;;;17.23;47.24
72798;BME280;61084;55.816;37.036;2023-05-28T09:57:29;99628.31;;;17.43;46.82
72798;BME280;61084;55.816;37.036;2023-05-28T09:59:55;99636.09;;;17.57;47.04
72798;BME280;61084;55.816;37.036;2023-05-28T10:04:53;99625.81;;;17.86;46.91
72798;BME280;61084;55.816;37.036;2023-05-28T10:07:25;99618.22;;;18.03;46.98
72798;BME280;61084;55.816;37.036;2023-05-28T10:09:54;99616.25;;;18.17;46.75
72798;BME280;61084;55.816;37.036;2023-05-28T10:12:24;99616.53;;;18.14;46.17
72798;BME280;61084;55.816;37.036;2023-05-28T10:14:51;99616.53;;;18.14;46.55
72798;BME280;61084;55.816;37.036;2023-05-28T10:17:17;99611.94;;;18.16;46.77
72798;BME280;61084;55.816;37.036;2023-05-28T10:19:46;99609.09;;;18.39;47.58
72798;BME280;61084;55.816;37.036;2023-05-28T10:22:13;99597.81;;;18.58;46.45
72798;BME280;61084;55.816;37.036;2023-05-28T10:24:39;99597.78;;;18.69;46.42
72798;BME280;61084;55.816;37.036;2023-05-28T10:27:06;99594.53;;;18.86;45.86
72798;BME280;61084;55.816;37.036;2023-05-28T10:29:40;99597.63;;;19.02;46.03
72798;BME280;61084;55.816;37.036;2023-05-28T10:32:07;99592.94;;;19.15;45.72
72798;BME280;61084;55.816;37.036;2023-05-28T10:34:36;99584.13;;;19.15;44.71
72798;BME280;61084;55.816;37.036;2023-05-28T10:37:03;99586.69;;;19.05;45.45
72798;BME280;61084;55.816;37.036;2023-05-28T10:39:43;99593.91;;;19.14;45.44
72798;BME280;61084;55.816;37.036;2023-05-28T10:42:16;99594.28;;;19.10;44.57
72798;BME280;61084;55.816;37.036;2023-05-28T10:47:38;99586.31;;;19.30;44.58
72798;BME280;61084;55.816;37.036;2023-05-28T10:50:17;99585.59;;;19.28;44.73
72798;BME280;61084;55.816;37.036;2023-05-28T10:53:05;99587.28;;;19.29;43.40
72798;BME280;61084;55.816;37.036;2023-05-28T10:55:53;99584.56;;;19.40;44.42
72798;BME280;61084;55.816;37.036;2023-05-28T10:58:36;99576.34;;;19.53;42.87
72798;BME280;61084;55.816;37.036;2023-05-28T11:06:09;99572.69;;;19.75;42.80
72798;BME280;61084;55.816;37.036;2023-05-28T11:08:47;99570.19;;;19.92;41.70
72798;BME280;61084;55.816;37.036;2023-05-28T11:11:15;99571.66;;;20.06;43.06
72798;BME280;61084;55.816;37.036;2023-05-28T11:13:45;99580.16;;;20.30;43.40
72798;BME280;61084;55.816;37.036;2023-05-28T11:16:13;99574.72;;;20.51;43.64
72798;BME280;61084;55.816;37.036;2023-05-28T11:18:59;99574.13;;;20.66;41.80
72798;BME280;61084;55.816;37.036;2023-05-28T11:21:25;99566.41;;;20.73;40.13
72798;BME280;61084;55.816;37.036;2023-05-28T11:24:04;99565.16;;;20.86;41.01
72798;BME280;61084;55.816;37.036;2023-05-28T11:26:31;99566.69;;;20.98;41.63
72798;BME280;61084;55.816;37.036;2023-05-28T11:28:58;99567.25;;;21.02;41.74
72798;BME280;61084;55.816;37.036;2023-05-28T11:31:24;99559.38;;;21.00;41.06
72798;BME280;61084;55.816;37.036;2023-05-28T11:33:50;99551.97;;;21.04;41.42
72798;BME280;61084;55.816;37.036;2023-05-28T11:36:18;99544.75;;;21.14;38.75
72798;BME280;61084;55.816;37.036;2023-05-28T11:38:46;99546.03;;;21.20;38.61
72798;BME280;61084;55.816;37.036;2023-05-28T11:41:12;99544.03;;;21.31;40.51
72798;BME280;61084;55.816;37.036;2023-05-28T11:43:38;99553.69;;;21.42;39.72
72798;BME280;61084;55.816;37.036;2023-05-28T11:46:05;99548.31;;;21.51;37.46
72798;BME280;61084;55.816;37.036;2023-05-28T11:48:36;99546.56;;;21.60;39.57
72798;BME280;61084;55.816;37.036;2023-05-28T11:51:02;99542.44;;;21.75;40.43
72798;BME280;61084;55.816;37.036;2023-05-28T11:53:41;99549.63;;;22.02;39.45
72798;BME280;61084;55.816;37.036;2023-05-28T11:56:08;99556.78;;;22.28;39.25
72798;BME280;61084;55.816;37.036;2023-05-28T11:58:35;99565.91;;;22.35;39.64
72798;BME280;61084;55.816;37.036;2023-05-28T12:01:03;99569.16;;;22.29;37.79
72798;BME280;61084;55.816;37.036;2023-05-28T12:03:30;99588.84;;;22.11;38.50
72798;BME280;61084;55.816;37.036;2023-05-28T12:05:56;99613.25;;;21.61;37.45
72798;BME280;61084;55.816;37.036;2023-05-28T12:08:22;99621.88;;;20.88;37.80
72798;BME280;61084;55.816;37.036;2023-05-28T12:10:48;99613.06;;;20.19;39.19
72798;BME280;61084;55.816;37.036;2023-05-28T12:13:14;99610.47;;;19.89;39.83
72798;BME280;61084;55.816;37.036;2023-05-28T12:15:41;99609.31;;;19.82;40.64
72798;BME280;61084;55.816;37.036;2023-05-28T12:18:07;99597.22;;;19.78;41.48
72798;BME280;61084;55.816;37.036;2023-05-28T12:20:36;99605.69;;;19.83;41.76
72798;BME280;61084;55.816;37.036;2023-05-28T12:23:09;99609.91;;;19.95;42.80
72798;BME280;61084;55.816;37.036;2023-05-28T12:28:04;99595.38;;;20.09;42.60
72798;BME280;61084;55.816;37.036;2023-05-28T12:30:30;99598.16;;;20.07;42.73
72798;BME280;61084;55.816;37.036;2023-05-28T12:32:56;99595.94;;;20.03;42.81
72798;BME280;61084;55.816;37.036;2023-05-28T12:35:21;99595.34;;;19.99;42.86
72798;BME280;61084;55.816;37.036;2023-05-28T12:37:47;99588.19;;;20.00;42.84
72798;BME280;61084;55.816;37.036;2023-05-28T12:40:13;99585.78;;;19.97;42.75
72798;BME280;61084;55.816;37.036;2023-05-28T12:42:39;99589.16;;;19.99;42.66
72798;BME280;61084;55.816;37.036;2023-05-28T12:45:05;99588.84;;;20.22;42.84
72798;BME280;61084;55.816;37.036;2023-05-28T12:47:31;99589.28;;;20.47;42.99
72798;BME280;61084;55.816;37.036;2023-05-28T12:49:56;99591.81;;;20.58;42.75
72798;BME280;61084;55.816;37.036;2023-05-28T12:52:22;99608.41;;;20.52;42.15
72798;BME280;61084;55.816;37.036;2023-05-28T12:54:48;99611.59;;;20.36;41.60
72798;BME280;61084;55.816;37.036;2023-05-28T12:57:14;99630.88;;;20.19;41.83
72798;BME280;61084;55.816;37.036;2023-05-28T12:59:39;99626.38;;;19.70;41.67
72798;BME280;61084;55.816;37.036;2023-05-28T13:02:06;99621.56;;;19.23;42.00
72798;BME280;61084;55.816;37.036;2023-05-28T13:04:31;99637.25;;;18.85;42.46
72798;BME280;61084;55.816;37.036;2023-05-28T13:06:57;99629.28;;;18.53;42.96
72798;BME280;61084;55.816;37.036;2023-05-28T13:09:23;99625.41;;;18.35;43.70
72798;BME280;61084;55.816;37.036;2023-05-28T13:11:49;99622.78;;;18.24;44.07
72798;BME280;61084;55.816;37.036;2023-05-28T13:14:15;99611.56;;;18.20;44.73
72798;BME280;61084;55.816;37.036;2023-05-28T13:16:41;99605.03;;;18.24;45.09
72798;BME280;61084;55.816;37.036;2023-05-28T13:19:07;99597.84;;;18.36;45.37